createdAt,value
2022-12-23T00:02:15.473Z,11.00
2022-12-23T00:08:09.958Z,10.90
2022-12-23T00:14:22.919Z,10.90
2022-12-23T00:20:41.409Z,11.00
2022-12-23T00:27:00.029Z,11.00
2022-12-23T00:32:54.477Z,11.00
2022-12-23T00:39:07.541Z,10.90
2022-12-23T00:45:26.020Z,10.80
2022-12-23T00:51:44.408Z,10.70
2022-12-23T00:57:38.759Z,10.70
2022-12-23T01:03:52.059Z,10.60
2022-12-23T01:10:10.726Z,10.70
2022-12-23T01:16:29.182Z,10.80
2022-12-23T01:22:23.696Z,10.80
2022-12-23T01:28:18.140Z,10.80
2022-12-23T01:34:37.704Z,10.80
2022-12-23T01:40:56.310Z,10.70
2022-12-23T01:46:50.666Z,10.70
2022-12-23T01:53:08.220Z,10.70
2022-12-23T01:59:45.338Z,10.80
2022-12-23T02:06:24.025Z,10.80
2022-12-23T02:12:37.079Z,10.90
2022-12-23T02:18:53.644Z,10.90
2022-12-23T02:25:27.333Z,10.90
2022-12-23T02:31:55.438Z,10.90
2022-12-23T02:37:55.912Z,10.90
2022-12-23T02:44:15.825Z,10.80
2022-12-23T02:50:35.728Z,10.80
2022-12-23T02:56:54.104Z,10.80
2022-12-23T03:02:48.816Z,10.80
2022-12-23T03:08:43.557Z,10.80
2022-12-23T03:15:34.193Z,10.90
2022-12-23T03:21:58.337Z,11.00
2022-12-23T03:27:54.901Z,11.00
2022-12-23T03:33:53.326Z,10.90
2022-12-23T03:40:36.285Z,10.90
2022-12-23T03:47:15.006Z,11.00
2022-12-23T03:53:17.172Z,11.00
2022-12-23T03:59:23.222Z,10.90
2022-12-23T04:05:41.711Z,11.00
2022-12-23T04:12:00.126Z,10.90
2022-12-23T04:17:54.800Z,10.90
2022-12-23T04:23:49.276Z,10.90
2022-12-23T04:30:08.523Z,10.90
2022-12-23T04:36:26.894Z,10.90
2022-12-23T04:42:21.270Z,10.80
2022-12-23T04:48:15.727Z,10.80
2022-12-23T04:54:34.379Z,10.80
2022-12-23T05:01:05.397Z,10.80
2022-12-23T05:06:59.821Z,10.80
2022-12-23T05:12:54.276Z,10.70
2022-12-23T05:19:12.753Z,10.70
2022-12-23T05:25:32.690Z,10.80
2022-12-23T05:31:27.094Z,10.70
2022-12-23T05:37:21.597Z,10.70
2022-12-23T05:43:40.059Z,10.70
2022-12-23T05:49:58.412Z,10.70
2022-12-23T05:55:52.849Z,10.60
2022-12-23T06:01:47.551Z,10.60
2022-12-23T06:08:06.296Z,10.60
2022-12-23T06:14:28.810Z,10.60
2022-12-23T06:20:23.895Z,10.60
2022-12-23T06:26:18.346Z,10.60
2022-12-23T06:32:38.752Z,10.70
2022-12-23T06:38:57.409Z,10.70
2022-12-23T06:44:51.826Z,10.70
2022-12-23T06:50:46.615Z,10.60
2022-12-23T06:57:05.139Z,10.70
2022-12-23T07:03:23.574Z,10.70
2022-12-23T07:09:18.053Z,10.50
2022-12-23T07:15:12.624Z,10.50
2022-12-23T07:21:32.125Z,10.60
2022-12-23T07:27:55.243Z,10.60
2022-12-23T07:33:49.604Z,10.60
2022-12-23T07:39:44.097Z,10.60
2022-12-23T07:46:09.369Z,10.60
2022-12-23T07:52:28.419Z,10.60
2022-12-23T07:58:22.835Z,10.50
2022-12-23T08:04:17.489Z,10.50
2022-12-23T08:10:36.036Z,10.50
2022-12-23T08:16:54.469Z,10.40
2022-12-23T08:22:48.884Z,10.30
2022-12-23T08:28:44.201Z,10.40
2022-12-23T08:35:02.659Z,10.30
2022-12-23T08:41:24.632Z,10.30
2022-12-23T08:47:18.984Z,10.40
2022-12-23T08:53:13.596Z,10.40
2022-12-23T08:59:32.068Z,10.50
2022-12-23T09:05:50.456Z,10.40
2022-12-23T09:11:44.870Z,10.40
2022-12-23T09:17:39.338Z,10.40
2022-12-23T09:23:57.802Z,10.40
2022-12-23T09:30:17.255Z,10.40
2022-12-23T09:36:11.608Z,10.30
2022-12-23T09:42:22.401Z,10.30
2022-12-23T09:48:45.634Z,10.40
2022-12-23T09:55:04.074Z,10.40
2022-12-23T10:01:01.273Z,10.40
2022-12-23T10:07:05.505Z,10.40
2022-12-23T10:13:39.682Z,10.40
2022-12-23T10:19:59.081Z,10.40
2022-12-23T10:25:53.558Z,10.50
2022-12-23T10:32:22.742Z,10.50
2022-12-23T10:38:59.312Z,10.40
2022-12-23T10:45:35.994Z,10.40
2022-12-23T10:51:32.295Z,10.50
2022-12-23T10:57:26.772Z,10.40
2022-12-23T11:04:07.820Z,10.40
2022-12-23T11:10:28.781Z,10.40
2022-12-23T11:16:27.141Z,10.30
2022-12-23T11:22:24.869Z,10.40
2022-12-23T11:28:51.491Z,10.40
2022-12-23T11:35:39.516Z,10.40
2022-12-23T11:41:35.368Z,10.40
2022-12-23T11:47:41.148Z,10.30
2022-12-23T11:54:01.893Z,10.40
2022-12-23T12:00:24.864Z,10.40
2022-12-23T12:06:19.638Z,10.40
2022-12-23T12:12:16.726Z,10.40
2022-12-23T12:18:35.253Z,10.40
2022-12-23T12:24:53.696Z,10.40
2022-12-23T12:30:53.674Z,10.50
2022-12-23T12:36:53.220Z,10.60
2022-12-23T12:43:27.828Z,10.70
2022-12-23T12:49:47.488Z,10.80
2022-12-23T12:55:43.317Z,11.00
2022-12-23T13:01:41.677Z,11.40
2022-12-23T13:08:31.064Z,11.90
2022-12-23T13:14:58.632Z,12.40
2022-12-23T13:20:55.604Z,12.60
2022-12-23T13:27:01.489Z,12.60
2022-12-23T13:33:19.968Z,12.70
2022-12-23T13:40:04.848Z,12.70
2022-12-23T13:45:59.252Z,12.70
2022-12-23T13:52:23.442Z,12.60
2022-12-23T13:58:41.961Z,12.60
2022-12-23T14:05:00.416Z,12.60
2022-12-23T14:11:00.789Z,12.50
2022-12-23T14:17:10.071Z,12.50
2022-12-23T14:23:32.441Z,12.50
2022-12-23T14:30:01.527Z,12.40
2022-12-23T14:36:18.532Z,12.40
2022-12-23T14:42:16.643Z,12.40
2022-12-23T14:48:44.645Z,12.40
2022-12-23T14:55:32.413Z,12.40
2022-12-23T15:01:31.783Z,12.40
2022-12-23T15:07:40.878Z,12.30
2022-12-23T15:14:10.306Z,12.30
2022-12-23T15:20:28.738Z,12.30
2022-12-23T15:26:24.671Z,12.30
2022-12-23T15:32:20.671Z,12.30
2022-12-23T15:38:39.274Z,12.30
2022-12-23T15:44:57.898Z,12.30
2022-12-23T15:50:53.763Z,12.20
2022-12-23T15:56:49.305Z,12.20
2022-12-23T16:03:23.106Z,12.30
2022-12-23T16:09:41.608Z,12.30
2022-12-23T16:15:35.960Z,12.10
2022-12-23T16:21:37.428Z,12.10
2022-12-23T16:27:58.336Z,12.10
2022-12-23T16:34:16.691Z,12.10
2022-12-23T16:40:14.459Z,12.10
2022-12-23T16:46:12.793Z,12.00
2022-12-23T16:52:31.301Z,12.00
2022-12-23T16:58:49.659Z,12.00
2022-12-23T17:04:44.029Z,12.00
2022-12-23T17:10:38.940Z,12.00
2022-12-23T17:16:58.530Z,12.10
2022-12-23T17:23:29.914Z,12.10
2022-12-23T17:29:24.281Z,12.10
2022-12-23T17:35:20.040Z,12.00
2022-12-23T17:41:39.507Z,11.90
2022-12-23T17:47:57.925Z,12.00
2022-12-23T17:53:57.626Z,12.00
2022-12-23T17:59:53.091Z,12.00
2022-12-23T18:06:15.684Z,12.10
2022-12-23T18:12:34.671Z,12.10
2022-12-23T18:18:41.730Z,12.10
2022-12-23T18:24:40.257Z,12.10
2022-12-23T18:30:59.020Z,12.10
2022-12-23T18:37:17.438Z,12.00
2022-12-23T18:43:21.682Z,11.90
2022-12-23T18:49:17.204Z,11.70
2022-12-23T18:55:35.740Z,11.60
2022-12-23T19:01:54.218Z,11.60
2022-12-23T19:07:48.675Z,11.60
2022-12-23T19:13:43.177Z,11.60
2022-12-23T19:20:01.815Z,11.60
2022-12-23T19:26:20.188Z,11.60
2022-12-23T19:32:14.589Z,11.50
2022-12-23T19:38:09.104Z,11.30
2022-12-23T19:44:27.655Z,11.30
2022-12-23T19:50:46.191Z,11.20
2022-12-23T19:56:40.628Z,11.20
2022-12-23T20:02:35.220Z,11.20
2022-12-23T20:09:00.024Z,11.20
2022-12-23T20:15:19.102Z,11.30
2022-12-23T20:21:13.551Z,11.30
2022-12-23T20:27:11.316Z,11.20
2022-12-23T20:33:30.530Z,11.20
2022-12-23T20:39:48.895Z,11.10
2022-12-23T20:45:43.771Z,11.10
2022-12-23T20:51:38.340Z,11.00
2022-12-23T20:57:56.817Z,11.00
2022-12-23T21:04:15.939Z,11.10
2022-12-23T21:10:10.495Z,11.00
2022-12-23T21:16:06.038Z,10.90
2022-12-23T21:22:24.557Z,11.00
2022-12-23T21:28:43.283Z,11.00
2022-12-23T21:34:37.665Z,11.00
2022-12-23T21:40:32.336Z,11.10
2022-12-23T21:46:51.499Z,11.20
2022-12-23T21:53:09.979Z,11.30
2022-12-23T21:59:08.358Z,11.30
2022-12-23T22:05:02.843Z,11.30
2022-12-23T22:11:23.314Z,11.20
2022-12-23T22:17:41.672Z,11.20
2022-12-23T22:23:36.489Z,11.00
2022-12-23T22:29:30.973Z,10.90
2022-12-23T22:35:56.879Z,10.90
2022-12-23T22:42:15.308Z,10.90
2022-12-23T22:48:09.709Z,10.90
2022-12-23T22:54:04.290Z,10.90
2022-12-23T23:00:22.840Z,10.90
2022-12-23T23:06:41.362Z,10.90
2022-12-23T23:12:35.741Z,10.80
2022-12-23T23:18:30.567Z,10.80
2022-12-23T23:24:49.176Z,10.80
2022-12-23T23:37:22.329Z,10.90
2022-12-23T23:43:16.822Z,10.80
2022-12-23T23:51:26.139Z,11.00
2022-12-23T23:57:44.539Z,11.10
